createdAt,value
2022-09-17T00:01:52.784Z,9.13
2022-09-17T00:04:20.711Z,8.38
2022-09-17T00:06:48.602Z,9.77
2022-09-17T00:09:16.075Z,10.57
2022-09-17T00:11:44.123Z,8.70
2022-09-17T00:14:16.069Z,8.70
2022-09-17T00:16:50.836Z,9.95
2022-09-17T00:19:23.093Z,10.60
2022-09-17T00:21:51.453Z,9.60
2022-09-17T00:24:20.621Z,9.10
2022-09-17T00:26:48.672Z,11.80
2022-09-17T00:29:17.263Z,10.02
2022-09-17T00:31:44.850Z,10.80
2022-09-17T00:34:12.894Z,10.43
2022-09-17T00:36:40.721Z,11.75
2022-09-17T00:39:12.316Z,11.20
2022-09-17T00:41:43.039Z,11.52
2022-09-17T00:44:49.222Z,11.15
2022-09-17T00:47:42.572Z,11.98
2022-09-17T00:50:15.391Z,11.40
2022-09-17T00:52:46.150Z,11.55
2022-09-17T00:55:19.838Z,12.02
2022-09-17T00:57:49.976Z,11.75
2022-09-17T01:00:19.161Z,14.18
2022-09-17T01:02:47.308Z,12.90
2022-09-17T01:05:15.790Z,13.85
2022-09-17T01:08:03.696Z,10.52
2022-09-17T01:11:30.653Z,13.05
2022-09-17T01:14:26.951Z,12.73
2022-09-17T01:17:07.279Z,10.60
2022-09-17T01:19:43.235Z,12.52
2022-09-17T01:22:26.638Z,12.68
2022-09-17T01:25:17.765Z,11.70
2022-09-17T01:28:04.178Z,11.30
2022-09-17T01:30:58.273Z,12.40
2022-09-17T01:33:40.477Z,12.90
2022-09-17T01:36:31.715Z,13.33
2022-09-17T01:39:11.349Z,11.75
2022-09-17T01:41:56.483Z,12.55
2022-09-17T01:44:31.930Z,12.43
2022-09-17T01:47:43.835Z,14.02
2022-09-17T01:50:17.378Z,12.45
2022-09-17T01:52:49.055Z,12.10
2022-09-17T01:55:17.896Z,13.93
2022-09-17T01:57:59.568Z,11.15
2022-09-17T02:00:27.517Z,13.00
2022-09-17T02:03:17.339Z,11.93
2022-09-17T02:05:56.203Z,10.75
2022-09-17T02:08:26.434Z,10.88
2022-09-17T02:11:13.787Z,10.48
2022-09-17T02:13:45.145Z,9.73
2022-09-17T02:16:19.822Z,10.50
2022-09-17T02:18:54.132Z,11.90
2022-09-17T02:21:30.808Z,9.18
2022-09-17T02:24:19.362Z,8.57
2022-09-17T02:27:09.317Z,9.82
2022-09-17T02:29:40.064Z,10.75
2022-09-17T02:32:10.276Z,9.90
2022-09-17T02:34:38.250Z,8.68
2022-09-17T02:37:06.446Z,9.90
2022-09-17T02:39:36.963Z,10.02
2022-09-17T02:42:16.665Z,9.32
2022-09-17T02:45:16.750Z,7.93
2022-09-17T02:48:05.615Z,10.30
2022-09-17T02:51:16.817Z,9.10
2022-09-17T02:54:03.696Z,9.73
2022-09-17T02:56:55.677Z,9.32
2022-09-17T02:59:53.985Z,7.97
2022-09-17T03:02:26.340Z,9.68
2022-09-17T03:04:54.110Z,9.20
2022-09-17T03:07:25.189Z,9.05
2022-09-17T03:09:53.057Z,8.07
2022-09-17T03:12:20.776Z,7.80
2022-09-17T03:14:48.663Z,10.53
2022-09-17T03:17:16.075Z,9.63
2022-09-17T03:19:43.705Z,8.40
2022-09-17T03:22:14.070Z,9.30
2022-09-17T03:24:41.739Z,8.85
2022-09-17T03:27:10.724Z,7.35
2022-09-17T03:29:42.366Z,9.30
2022-09-17T03:32:13.104Z,8.95
2022-09-17T03:34:41.983Z,7.40
2022-09-17T03:37:10.201Z,7.30
2022-09-17T03:39:38.223Z,8.10
2022-09-17T03:42:08.903Z,8.23
2022-09-17T03:44:36.423Z,8.55
2022-09-17T03:47:07.989Z,8.07
2022-09-17T03:49:35.573Z,9.10
2022-09-17T03:52:03.399Z,7.47
2022-09-17T03:54:34.111Z,8.75
2022-09-17T03:57:01.596Z,8.35
2022-09-17T03:59:30.303Z,6.53
2022-09-17T04:02:04.684Z,7.25
2022-09-17T04:04:40.514Z,7.60
2022-09-17T04:07:09.695Z,9.13
2022-09-17T04:09:53.422Z,6.50
2022-09-17T04:12:22.193Z,6.87
2022-09-17T04:14:51.565Z,7.85
2022-09-17T04:17:19.946Z,6.47
2022-09-17T04:19:47.505Z,8.07
2022-09-17T04:22:16.661Z,7.82
2022-09-17T04:24:44.411Z,7.82
2022-09-17T04:27:12.246Z,7.82
2022-09-17T04:29:39.922Z,5.97
2022-09-17T04:32:08.130Z,6.68
2022-09-17T04:34:38.854Z,6.80
2022-09-17T04:37:11.695Z,6.18
2022-09-17T04:39:39.936Z,7.45
2022-09-17T04:42:10.613Z,6.78
2022-09-17T04:44:40.959Z,6.53
2022-09-17T04:47:08.786Z,6.80
2022-09-17T04:49:37.216Z,6.85
2022-09-17T04:52:05.874Z,7.12
2022-09-17T04:54:34.389Z,6.85
2022-09-17T04:57:07.112Z,6.90
2022-09-17T04:59:35.553Z,7.68
2022-09-17T05:02:04.987Z,7.40
2022-09-17T05:04:33.327Z,8.18
2022-09-17T05:07:09.942Z,7.10
2022-09-17T05:09:44.972Z,6.37
2022-09-17T05:12:14.052Z,7.93
2022-09-17T05:14:47.475Z,7.95
2022-09-17T05:17:24.230Z,8.25
2022-09-17T05:19:59.834Z,7.22
2022-09-17T05:22:28.176Z,8.43
2022-09-17T05:24:56.544Z,6.45
2022-09-17T05:27:33.793Z,6.53
2022-09-17T05:30:29.300Z,7.90
2022-09-17T05:33:06.095Z,8.77
2022-09-17T05:35:39.237Z,40.30
2022-09-17T05:38:24.043Z,21.08
2022-09-17T05:40:57.998Z,7.35
2022-09-17T05:43:38.680Z,9.25
2022-09-17T05:46:14.059Z,7.15
2022-09-17T05:48:44.597Z,6.65
2022-09-17T05:51:32.501Z,7.15
2022-09-17T05:54:10.840Z,8.07
2022-09-17T05:56:44.930Z,6.97
2022-09-17T05:59:17.108Z,7.22
2022-09-17T06:01:48.553Z,7.40
2022-09-17T06:04:18.172Z,6.60
2022-09-17T06:06:47.697Z,7.72
2022-09-17T06:09:18.424Z,6.32
2022-09-17T06:12:04.558Z,6.05
2022-09-17T06:14:36.536Z,6.53
2022-09-17T06:17:22.004Z,6.00
2022-09-17T06:20:03.187Z,8.43
2022-09-17T06:22:47.114Z,7.10
2022-09-17T06:25:21.960Z,5.78
2022-09-17T06:27:59.969Z,7.72
2022-09-17T06:30:28.868Z,7.43
2022-09-17T06:33:03.590Z,6.57
2022-09-17T06:35:32.278Z,8.15
2022-09-17T06:38:09.163Z,7.10
2022-09-17T06:40:44.757Z,7.17
2022-09-17T06:43:34.301Z,7.25
2022-09-17T06:46:07.169Z,7.12
2022-09-17T06:48:41.717Z,6.47
2022-09-17T06:51:17.159Z,5.80
2022-09-17T06:53:50.386Z,6.60
2022-09-17T06:56:19.369Z,6.22
2022-09-17T06:58:53.032Z,6.32
2022-09-17T07:01:21.138Z,7.70
2022-09-17T07:03:53.643Z,6.95
2022-09-17T07:06:25.381Z,8.67
2022-09-17T07:08:54.600Z,7.68
2022-09-17T07:11:22.896Z,8.48
2022-09-17T07:13:53.787Z,6.57
2022-09-17T07:16:22.347Z,5.57
2022-09-17T07:18:54.117Z,7.10
2022-09-17T07:21:23.075Z,5.53
2022-09-17T07:23:52.330Z,6.32
2022-09-17T07:26:22.792Z,5.82
2022-09-17T07:28:51.524Z,6.60
2022-09-17T07:31:23.870Z,8.45
2022-09-17T07:33:53.845Z,6.30
2022-09-17T07:36:24.538Z,6.05
2022-09-17T07:38:58.795Z,7.00
2022-09-17T07:41:28.230Z,7.05
2022-09-17T07:44:04.618Z,5.83
2022-09-17T07:46:33.378Z,7.65
2022-09-17T07:49:02.418Z,5.62
2022-09-17T07:51:30.591Z,6.95
2022-09-17T07:54:02.625Z,6.45
2022-09-17T07:56:34.891Z,5.53
2022-09-17T07:59:06.137Z,6.37
2022-09-17T08:01:37.102Z,6.22
2022-09-17T08:04:11.140Z,5.97
2022-09-17T08:06:41.593Z,5.40
2022-09-17T08:09:15.392Z,7.65
2022-09-17T08:11:56.652Z,6.62
2022-09-17T08:14:29.775Z,7.30
2022-09-17T08:17:03.362Z,6.28
2022-09-17T08:19:33.069Z,5.45
2022-09-17T08:22:03.814Z,6.35
2022-09-17T08:24:37.758Z,7.00
2022-09-17T08:27:06.170Z,6.68
2022-09-17T08:29:42.910Z,8.02
2022-09-17T08:32:12.501Z,7.62
2022-09-17T08:34:41.853Z,6.50
2022-09-17T08:37:11.105Z,5.62
2022-09-17T08:39:42.499Z,7.07
2022-09-17T08:42:33.108Z,6.65
2022-09-17T08:45:11.344Z,7.22
2022-09-17T08:47:44.238Z,6.07
2022-09-17T08:50:24.052Z,7.67
2022-09-17T08:53:16.800Z,7.10
2022-09-17T08:56:03.325Z,5.57
2022-09-17T08:58:41.524Z,5.35
2022-09-17T09:01:33.368Z,5.82
2022-09-17T09:05:01.602Z,6.18
2022-09-17T09:07:42.651Z,6.15
2022-09-17T09:10:28.786Z,5.75
2022-09-17T09:12:58.056Z,6.20
2022-09-17T09:15:39.018Z,5.05
2022-09-17T09:18:23.927Z,6.37
2022-09-17T09:21:06.464Z,6.72
2022-09-17T09:23:55.748Z,8.60
2022-09-17T09:26:36.890Z,6.28
2022-09-17T09:29:34.772Z,6.78
2022-09-17T09:32:44.723Z,6.80
2022-09-17T09:35:17.968Z,5.62
2022-09-17T09:37:57.816Z,6.70
2022-09-17T09:40:51.043Z,6.57
2022-09-17T09:43:46.571Z,6.35
2022-09-17T09:46:58.694Z,6.85
2022-09-17T09:49:32.875Z,8.57
2022-09-17T09:52:35.962Z,5.27
2022-09-17T09:55:26.863Z,5.07
2022-09-17T09:58:17.549Z,7.37
2022-09-17T10:04:08.811Z,5.87
2022-09-17T10:06:41.049Z,6.47
2022-09-17T10:09:21.344Z,6.33
2022-09-17T10:12:23.492Z,6.53
2022-09-17T10:15:36.544Z,5.43
2022-09-17T10:18:18.711Z,8.65
2022-09-17T10:21:14.612Z,7.87
2022-09-17T10:23:53.287Z,3.58
2022-09-17T10:26:35.003Z,5.10
2022-09-17T10:29:17.195Z,5.35
2022-09-17T10:31:54.711Z,5.00
2022-09-17T10:34:57.583Z,5.82
2022-09-17T10:37:46.645Z,6.37
2022-09-17T10:40:21.379Z,3.58
2022-09-17T10:43:08.562Z,3.33
2022-09-17T10:45:45.075Z,4.43
2022-09-17T10:48:21.696Z,4.97
2022-09-17T10:50:57.834Z,3.93
2022-09-17T10:53:28.320Z,4.93
2022-09-17T10:56:25.674Z,6.22
2022-09-17T10:59:39.225Z,5.33
2022-09-17T11:02:16.349Z,4.53
2022-09-17T11:05:08.594Z,11.90
2022-09-17T11:08:14.571Z,7.03
2022-09-17T11:10:54.545Z,5.22
2022-09-17T11:13:55.345Z,5.87
2022-09-17T11:16:46.619Z,6.30
2022-09-17T11:19:30.757Z,5.03
2022-09-17T11:22:23.651Z,5.23
2022-09-17T11:25:19.974Z,5.90
2022-09-17T11:27:56.586Z,6.05
2022-09-17T11:30:43.348Z,6.30
2022-09-17T11:33:19.524Z,5.18
2022-09-17T11:35:51.368Z,4.25
2022-09-17T11:38:50.111Z,4.35
2022-09-17T11:41:31.158Z,9.25
2022-09-17T11:44:29.533Z,5.37
2022-09-17T11:47:26.742Z,4.47
2022-09-17T11:50:02.484Z,4.47
2022-09-17T11:52:45.018Z,5.07
2022-09-17T11:55:24.717Z,6.70
2022-09-17T11:57:59.983Z,6.57
2022-09-17T12:00:41.971Z,4.20
2022-09-17T12:03:23.693Z,5.22
2022-09-17T12:05:57.771Z,5.47
2022-09-17T12:08:31.091Z,6.97
2022-09-17T12:11:26.337Z,5.65
2022-09-17T12:14:05.764Z,5.10
2022-09-17T12:16:43.577Z,5.00
2022-09-17T12:19:24.525Z,4.68
2022-09-17T12:22:00.185Z,3.95
2022-09-17T12:24:30.292Z,6.35
2022-09-17T12:27:04.597Z,5.37
2022-09-17T12:29:53.104Z,3.55
2022-09-17T12:32:35.052Z,5.07
2022-09-17T12:35:21.935Z,3.87
2022-09-17T12:37:56.324Z,3.95
2022-09-17T12:40:40.473Z,4.07
2022-09-17T12:43:17.992Z,5.47
2022-09-17T12:46:08.662Z,4.03
2022-09-17T12:48:45.935Z,5.43
2022-09-17T12:51:44.810Z,4.78
2022-09-17T12:54:23.178Z,4.53
2022-09-17T12:57:00.092Z,5.00
2022-09-17T12:59:31.636Z,5.13
2022-09-17T13:02:04.700Z,6.40
2022-09-17T13:05:01.295Z,9.00
2022-09-17T13:08:15.627Z,6.57
2022-09-17T13:10:47.256Z,4.40
2022-09-17T13:13:34.253Z,4.73
2022-09-17T13:16:30.814Z,4.90
2022-09-17T13:19:16.624Z,5.82
2022-09-17T13:22:22.778Z,5.68
2022-09-17T13:25:12.321Z,6.07
2022-09-17T13:27:41.550Z,5.20
2022-09-17T13:30:12.321Z,6.47
2022-09-17T13:32:40.475Z,4.20
2022-09-17T13:35:30.822Z,6.90
2022-09-17T13:38:00.479Z,5.25
2022-09-17T13:40:36.754Z,6.43
2022-09-17T13:43:13.097Z,6.82
2022-09-17T13:46:01.253Z,4.57
2022-09-17T13:48:31.894Z,5.25
2022-09-17T13:51:35.768Z,5.70
2022-09-17T13:54:06.040Z,5.83
2022-09-17T13:56:55.498Z,4.72
2022-09-17T13:59:39.845Z,6.47
2022-09-17T14:02:15.161Z,5.87
2022-09-17T14:04:43.326Z,6.37
2022-09-17T14:07:24.493Z,7.75
2022-09-17T14:10:16.939Z,5.93
2022-09-17T14:12:58.036Z,4.50
2022-09-17T14:15:42.141Z,6.57
2022-09-17T14:18:28.799Z,8.52
2022-09-17T14:21:33.553Z,4.75
2022-09-17T14:24:05.018Z,5.72
2022-09-17T14:26:45.104Z,7.62
2022-09-17T14:29:22.816Z,5.70
2022-09-17T14:31:57.377Z,6.05
2022-09-17T14:34:26.362Z,6.40
2022-09-17T14:36:55.805Z,5.75
2022-09-17T14:39:38.006Z,5.93
2022-09-17T14:42:16.167Z,7.25
2022-09-17T14:45:04.177Z,5.18
2022-09-17T14:47:35.456Z,6.68
2022-09-17T14:50:24.946Z,3.87
2022-09-17T14:52:54.937Z,5.30
2022-09-17T14:55:30.266Z,4.95
2022-09-17T14:58:04.855Z,5.20
2022-09-17T15:03:38.101Z,5.18
2022-09-17T15:06:21.913Z,5.07
2022-09-17T15:09:01.401Z,5.37
2022-09-17T15:11:42.178Z,6.70
2022-09-17T15:14:27.918Z,5.12
2022-09-17T15:17:02.379Z,4.47
2022-09-17T15:19:40.390Z,5.78
2022-09-17T15:22:21.455Z,6.03
2022-09-17T15:25:00.644Z,5.10
2022-09-17T15:27:42.028Z,3.83
2022-09-17T15:30:15.226Z,6.25
2022-09-17T15:33:16.199Z,4.47
2022-09-17T15:36:19.053Z,5.33
2022-09-17T15:38:52.274Z,5.70
2022-09-17T15:41:34.354Z,6.12
2022-09-17T15:44:32.124Z,5.93
2022-09-17T15:47:48.273Z,5.13
2022-09-17T15:50:20.681Z,11.15
2022-09-17T15:53:19.420Z,8.55
2022-09-17T15:56:03.445Z,6.25
2022-09-17T15:58:55.300Z,3.83
2022-09-17T16:01:29.935Z,4.13
2022-09-17T16:04:28.384Z,4.25
2022-09-17T16:07:13.737Z,3.57
2022-09-17T16:09:57.980Z,4.82
2022-09-17T16:12:34.692Z,5.43
2022-09-17T16:15:14.096Z,5.07
2022-09-17T16:17:48.993Z,5.73
2022-09-17T16:20:24.752Z,6.30
2022-09-17T16:22:55.145Z,5.45
2022-09-17T16:25:27.390Z,3.90
2022-09-17T16:28:03.371Z,4.35
2022-09-17T16:30:32.352Z,4.97
2022-09-17T16:33:17.026Z,4.55
2022-09-17T16:35:53.585Z,3.83
2022-09-17T16:38:24.604Z,4.50
2022-09-17T16:40:56.011Z,5.03
2022-09-17T16:43:28.432Z,5.43
2022-09-17T16:49:47.313Z,5.33
2022-09-17T16:52:20.171Z,6.82
2022-09-17T16:54:48.587Z,6.32
2022-09-17T16:57:26.652Z,6.12
2022-09-17T17:00:21.102Z,4.70
2022-09-17T17:03:03.876Z,4.22
2022-09-17T17:05:39.343Z,4.53
2022-09-17T17:08:10.595Z,3.70
2022-09-17T17:10:40.958Z,3.53
2022-09-17T17:13:13.893Z,5.53
2022-09-17T17:15:46.124Z,4.93
2022-09-17T17:18:25.508Z,4.03
2022-09-17T17:20:58.794Z,6.87
2022-09-17T17:23:27.630Z,3.83
2022-09-17T17:25:55.518Z,6.53
2022-09-17T17:28:23.008Z,7.05
2022-09-17T17:30:50.926Z,5.72
2022-09-17T17:33:21.125Z,5.85
2022-09-17T17:35:49.104Z,3.80
2022-09-17T17:38:20.853Z,6.15
2022-09-17T17:40:49.339Z,4.70
2022-09-17T17:43:17.405Z,5.28
2022-09-17T17:45:45.579Z,6.25
2022-09-17T17:48:14.010Z,4.72
2022-09-17T17:50:42.396Z,4.40
2022-09-17T17:53:10.390Z,4.15
2022-09-17T17:55:38.494Z,3.78
2022-09-17T17:58:07.342Z,3.92
2022-09-17T18:00:37.701Z,4.10
2022-09-17T18:03:13.986Z,5.27
2022-09-17T18:05:47.306Z,5.40
2022-09-17T18:08:34.408Z,4.90
2022-09-17T18:11:05.125Z,4.50
2022-09-17T18:13:41.616Z,5.13
2022-09-17T18:16:15.569Z,3.47
2022-09-17T18:18:52.944Z,4.30
2022-09-17T18:21:26.351Z,3.83
2022-09-17T18:24:04.473Z,4.30
2022-09-17T18:26:42.770Z,3.10
2022-09-17T18:29:22.808Z,4.40
2022-09-17T18:31:54.573Z,2.85
2022-09-17T18:34:29.139Z,4.67
2022-09-17T18:37:05.908Z,4.72
2022-09-17T18:42:42.676Z,5.15
2022-09-17T18:45:38.991Z,3.25
2022-09-17T18:48:15.229Z,3.30
2022-09-17T18:51:02.968Z,5.60
2022-09-17T18:53:38.397Z,4.43
2022-09-17T18:56:25.843Z,3.20
2022-09-17T18:58:57.384Z,3.60
2022-09-17T19:01:42.641Z,4.75
2022-09-17T19:04:47.711Z,2.78
2022-09-17T19:07:53.940Z,2.92
2022-09-17T19:13:42.420Z,3.05
2022-09-17T19:16:37.530Z,4.35
2022-09-17T19:19:40.949Z,5.03
2022-09-17T19:22:35.156Z,5.03
2022-09-17T19:25:31.241Z,4.03
2022-09-17T19:28:03.134Z,3.20
2022-09-17T19:30:51.915Z,3.75
2022-09-17T19:33:44.824Z,3.65
2022-09-17T19:36:20.328Z,3.05
2022-09-17T19:38:55.934Z,2.92
2022-09-17T19:41:38.418Z,6.32
2022-09-17T19:44:15.048Z,4.40
2022-09-17T19:47:23.646Z,3.93
2022-09-17T19:50:07.269Z,4.13
2022-09-17T19:52:41.341Z,3.92
2022-09-17T19:55:19.149Z,3.00
2022-09-17T19:57:52.126Z,2.73
2022-09-17T20:00:21.614Z,4.10
2022-09-17T20:02:51.422Z,5.95
2022-09-17T20:05:28.228Z,3.50
2022-09-17T20:07:56.941Z,3.60
2022-09-17T20:10:27.894Z,3.62
2022-09-17T20:12:59.469Z,3.50
2022-09-17T20:15:29.824Z,4.22
2022-09-17T20:18:02.045Z,3.80
2022-09-17T20:20:39.068Z,3.70
2022-09-17T20:23:11.939Z,3.87
2022-09-17T20:25:45.021Z,3.28
2022-09-17T20:28:26.110Z,3.62
2022-09-17T20:31:09.462Z,3.17
2022-09-17T20:33:38.109Z,5.40
2022-09-17T20:36:17.353Z,4.07
2022-09-17T20:41:43.360Z,3.65
2022-09-17T20:44:11.881Z,3.30
2022-09-17T20:46:43.081Z,3.37
2022-09-17T20:49:15.261Z,3.87
2022-09-17T20:51:43.184Z,4.03
2022-09-17T20:54:14.752Z,4.20
2022-09-17T20:56:49.837Z,3.87
2022-09-17T20:59:28.422Z,3.63
2022-09-17T21:01:56.503Z,3.70
2022-09-17T21:04:27.506Z,3.03
2022-09-17T21:06:56.630Z,3.65
2022-09-17T21:09:24.738Z,3.70
2022-09-17T21:11:57.541Z,3.80
2022-09-17T21:14:32.919Z,3.77
2022-09-17T21:17:11.559Z,3.35
2022-09-17T21:19:44.987Z,2.62
2022-09-17T21:22:14.108Z,3.12
2022-09-17T21:24:44.634Z,3.22
2022-09-17T21:27:21.502Z,2.70
2022-09-17T21:30:00.098Z,4.10
2022-09-17T21:32:37.262Z,4.65
2022-09-17T21:35:11.702Z,3.47
2022-09-17T21:37:39.954Z,5.10
2022-09-17T21:40:15.452Z,3.78
2022-09-17T21:42:50.115Z,4.37
2022-09-17T21:45:18.908Z,3.53
2022-09-17T21:47:52.509Z,5.45
2022-09-17T21:50:23.533Z,3.87
2022-09-17T21:53:00.338Z,4.85
2022-09-17T21:55:31.792Z,3.90
2022-09-17T21:58:02.364Z,3.58
2022-09-17T22:00:31.503Z,3.08
2022-09-17T22:03:05.797Z,3.40
2022-09-17T22:05:38.236Z,3.35
2022-09-17T22:08:12.090Z,3.10
2022-09-17T22:10:42.349Z,3.65
2022-09-17T22:13:15.868Z,3.60
2022-09-17T22:15:43.769Z,4.57
2022-09-17T22:18:15.246Z,3.45
2022-09-17T22:20:46.001Z,3.37
2022-09-17T22:23:14.334Z,2.17
2022-09-17T22:25:47.665Z,3.05
2022-09-17T22:28:21.549Z,4.37
2022-09-17T22:30:51.747Z,2.58
2022-09-17T22:33:19.614Z,3.50
2022-09-17T22:35:47.213Z,4.75
2022-09-17T22:38:22.032Z,2.70
2022-09-17T22:40:50.137Z,3.05
2022-09-17T22:43:17.633Z,8.48
2022-09-17T22:45:45.106Z,2.80
2022-09-17T22:48:18.720Z,3.28
2022-09-17T22:50:51.299Z,3.57
2022-09-17T22:53:22.469Z,5.37
2022-09-17T22:55:58.741Z,3.80
2022-09-17T22:58:27.115Z,4.30
2022-09-17T23:00:58.331Z,3.58
2022-09-17T23:03:30.072Z,3.05
2022-09-17T23:06:05.756Z,5.65
2022-09-17T23:08:35.731Z,4.50
2022-09-17T23:11:09.009Z,4.72
2022-09-17T23:13:37.136Z,3.78
2022-09-17T23:16:09.132Z,4.18
2022-09-17T23:18:42.363Z,3.80
2022-09-17T23:21:17.172Z,5.00
2022-09-17T23:23:50.296Z,3.30
2022-09-17T23:26:27.205Z,3.55
2022-09-17T23:29:05.567Z,3.80
2022-09-17T23:31:37.403Z,4.10
2022-09-17T23:34:06.906Z,6.05
2022-09-17T23:36:39.736Z,6.30
2022-09-17T23:39:09.463Z,4.75
2022-09-17T23:41:40.935Z,5.78
2022-09-17T23:44:16.251Z,3.67
2022-09-17T23:46:46.308Z,5.10
2022-09-17T23:49:18.497Z,3.72
2022-09-17T23:51:46.264Z,3.97
2022-09-17T23:54:19.755Z,5.50
2022-09-17T23:56:49.495Z,6.32
2022-09-17T23:59:17.512Z,3.70
